首页
METAR-TAF:

METAR-TAF

机场 :

蘇萊曼尼亞, 伊拉克

纬度: 35-33-39N, 经度: 45-18-52E, 海拔: 760米

当前天气观测

该预报发布于44分钟前的16:00 UTC
风速5节,风向东转东南
温度 8°C
湿度 93%
气压 1016 hPa
能见度10公里或以上
1500米以下无云,无积雨云

METAR: ORSU 121600Z 12005KT CAVOK 08/07 Q1016

时间: 19:44 (16:44 UTC)

预报

该预报发布于5小时和44分钟前的11:00 UTC
预报有效从12日的 12点(UTC)到 13日的 12点(UTC)
风速12节,风向东转东南
能見度: 8000
成为
从 12日的 18点(UTC)到 12日的 20点(UTC)
多云层高于4000英尺
阴天层高于7000英尺
短暂存在
从 12日的 20点(UTC)到 13日的 05点(UTC)
小雨
成为
从 13日的 06点(UTC)到 13日的 08点(UTC)
能見度: 5000

TAF: ORSU 121100Z 1212/1312 12012KT 8000 NSC BECMG 1218/1220 BKN040 OVC070 TEMPO 1220/1305 -RA BECMG 1306/1308 5000 RA

超过4000个机场的气象观测和天气预报(METAR&TAF报告)。

可查询的气象台以黄色和红色小点在地图上表示。

将鼠标移到小点上方,可查看气象台名称。

然后点击查看天气观测和预报。

如需切换地图:点击带黑十字的绿色按钮放大地图;点击带横线的绿色按钮缩小地图;或者点击绿色箭头查看邻近地区的地图。


METAR-TAF: